sensor_id;sensor_type;location;lat;lon;timestamp;temperature;humidity
40059;SHT31;25763;49.972;8.568;2023-03-25T00:01:01;9.15;84.60
40059;SHT31;25763;49.972;8.568;2023-03-25T00:03:29;9.09;84.26
40059;SHT31;25763;49.972;8.568;2023-03-25T00:05:55;9.04;84.14
40059;SHT31;25763;49.972;8.568;2023-03-25T00:08:22;8.98;84.19
40059;SHT31;25763;49.972;8.568;2023-03-25T00:10:57;8.95;84.47
40059;SHT31;25763;49.972;8.568;2023-03-25T00:13:23;8.92;84.26
40059;SHT31;25763;49.972;8.568;2023-03-25T00:15:49;8.89;84.39
40059;SHT31;25763;49.972;8.568;2023-03-25T00:18:21;8.89;84.36
40059;SHT31;25763;49.972;8.568;2023-03-25T00:20:53;8.85;84.39
40059;SHT31;25763;49.972;8.568;2023-03-25T00:23:19;8.87;84.42
40059;SHT31;25763;49.972;8.568;2023-03-25T00:25:46;8.83;84.36
40059;SHT31;25763;49.972;8.568;2023-03-25T00:28:12;8.83;84.09
40059;SHT31;25763;49.972;8.568;2023-03-25T00:30:38;8.84;83.98
40059;SHT31;25763;49.972;8.568;2023-03-25T00:33:04;8.80;83.72
40059;SHT31;25763;49.972;8.568;2023-03-25T00:35:29;8.83;83.64
40059;SHT31;25763;49.972;8.568;2023-03-25T00:37:55;8.85;83.44
40059;SHT31;25763;49.972;8.568;2023-03-25T00:40:29;8.85;83.47
40059;SHT31;25763;49.972;8.568;2023-03-25T00:42:55;8.83;83.25
40059;SHT31;25763;49.972;8.568;2023-03-25T00:45:21;8.81;82.99
40059;SHT31;25763;49.972;8.568;2023-03-25T00:47:47;8.81;82.72
40059;SHT31;25763;49.972;8.568;2023-03-25T00:50:13;8.77;82.80
40059;SHT31;25763;49.972;8.568;2023-03-25T00:52:39;8.77;82.63
40059;SHT31;25763;49.972;8.568;2023-03-25T00:55:06;8.75;82.56
40059;SHT31;25763;49.972;8.568;2023-03-25T00:57:32;8.74;82.56
40059;SHT31;25763;49.972;8.568;2023-03-25T00:59:58;8.77;82.21
40059;SHT31;25763;49.972;8.568;2023-03-25T01:02:23;8.80;81.95
40059;SHT31;25763;49.972;8.568;2023-03-25T01:04:48;8.83;81.60
40059;SHT31;25763;49.972;8.568;2023-03-25T01:07:18;8.85;81.38
40059;SHT31;25763;49.972;8.568;2023-03-25T01:09:45;8.89;81.56
40059;SHT31;25763;49.972;8.568;2023-03-25T01:12:12;8.87;81.64
40059;SHT31;25763;49.972;8.568;2023-03-25T01:14:38;8.89;81.08
40059;SHT31;25763;49.972;8.568;2023-03-25T01:17:04;8.91;81.21
40059;SHT31;25763;49.972;8.568;2023-03-25T01:19:29;8.91;80.62
40059;SHT31;25763;49.972;8.568;2023-03-25T01:21:55;8.97;80.57
40059;SHT31;25763;49.972;8.568;2023-03-25T01:24:20;8.94;80.44
40059;SHT31;25763;49.972;8.568;2023-03-25T01:26:46;8.95;80.59
40059;SHT31;25763;49.972;8.568;2023-03-25T01:29:15;8.94;80.49
40059;SHT31;25763;49.972;8.568;2023-03-25T01:31:42;8.98;80.27
40059;SHT31;25763;49.972;8.568;2023-03-25T01:34:08;9.02;80.14
40059;SHT31;25763;49.972;8.568;2023-03-25T01:36:34;9.05;80.44
40059;SHT31;25763;49.972;8.568;2023-03-25T01:39:02;9.05;80.39
40059;SHT31;25763;49.972;8.568;2023-03-25T01:41:30;9.04;80.59
40059;SHT31;25763;49.972;8.568;2023-03-25T01:46:55;9.01;81.37
40059;SHT31;25763;49.972;8.568;2023-03-25T01:49:25;8.99;81.63
40059;SHT31;25763;49.972;8.568;2023-03-25T01:51:57;9.02;81.32
40059;SHT31;25763;49.972;8.568;2023-03-25T01:54:23;9.06;81.60
40059;SHT31;25763;49.972;8.568;2023-03-25T01:56:51;9.06;81.72
40059;SHT31;25763;49.972;8.568;2023-03-25T01:59:19;9.01;81.31
40059;SHT31;25763;49.972;8.568;2023-03-25T02:01:45;9.04;81.19
40059;SHT31;25763;49.972;8.568;2023-03-25T02:04:12;9.04;81.06
40059;SHT31;25763;49.972;8.568;2023-03-25T02:06:43;9.11;80.88
40059;SHT31;25763;49.972;8.568;2023-03-25T02:09:10;9.11;80.80
40059;SHT31;25763;49.972;8.568;2023-03-25T02:11:37;9.12;80.48
40059;SHT31;25763;49.972;8.568;2023-03-25T02:14:05;9.14;80.65
40059;SHT31;25763;49.972;8.568;2023-03-25T02:27:20;9.14;80.81
40059;SHT31;25763;49.972;8.568;2023-03-25T02:33:23;9.11;81.22
40059;SHT31;25763;49.972;8.568;2023-03-25T02:38:51;9.12;81.43
40059;SHT31;25763;49.972;8.568;2023-03-25T02:44:06;9.08;81.48
40059;SHT31;25763;49.972;8.568;2023-03-25T02:46:40;9.02;81.32
40059;SHT31;25763;49.972;8.568;2023-03-25T02:49:11;9.01;81.44
40059;SHT31;25763;49.972;8.568;2023-03-25T02:51:44;9.02;81.24
40059;SHT31;25763;49.972;8.568;2023-03-25T02:54:15;8.98;81.14
40059;SHT31;25763;49.972;8.568;2023-03-25T02:56:42;8.98;80.95
40059;SHT31;25763;49.972;8.568;2023-03-25T02:59:12;9.01;81.12
40059;SHT31;25763;49.972;8.568;2023-03-25T03:01:39;8.99;80.70
40059;SHT31;25763;49.972;8.568;2023-03-25T03:04:05;8.98;80.37
40059;SHT31;25763;49.972;8.568;2023-03-25T03:06:34;9.02;79.89
40059;SHT31;25763;49.972;8.568;2023-03-25T03:09:21;9.08;78.57
40059;SHT31;25763;49.972;8.568;2023-03-25T03:14:31;9.09;79.07
40059;SHT31;25763;49.972;8.568;2023-03-25T03:17:22;9.12;78.93
40059;SHT31;25763;49.972;8.568;2023-03-25T03:19:57;9.11;79.12
40059;SHT31;25763;49.972;8.568;2023-03-25T03:25:09;9.01;79.48
40059;SHT31;25763;49.972;8.568;2023-03-25T03:28:03;8.97;79.76
40059;SHT31;25763;49.972;8.568;2023-03-25T03:33:20;8.85;80.23
40059;SHT31;25763;49.972;8.568;2023-03-25T03:36:01;8.81;80.31
40059;SHT31;25763;49.972;8.568;2023-03-25T03:38:37;8.80;80.48
40059;SHT31;25763;49.972;8.568;2023-03-25T03:41:08;8.83;80.42
40059;SHT31;25763;49.972;8.568;2023-03-25T03:43:42;8.77;80.34
40059;SHT31;25763;49.972;8.568;2023-03-25T03:46:33;8.68;80.25
40059;SHT31;25763;49.972;8.568;2023-03-25T03:49:06;8.65;80.27
40059;SHT31;25763;49.972;8.568;2023-03-25T03:51:38;8.73;80.25
40059;SHT31;25763;49.972;8.568;2023-03-25T03:54:16;8.63;80.02
40059;SHT31;25763;49.972;8.568;2023-03-25T03:56:46;8.64;80.14
40059;SHT31;25763;49.972;8.568;2023-03-25T03:59:19;8.63;80.25
40059;SHT31;25763;49.972;8.568;2023-03-25T04:01:50;8.63;80.12
40059;SHT31;25763;49.972;8.568;2023-03-25T04:04:22;8.61;79.72
40059;SHT31;25763;49.972;8.568;2023-03-25T04:07:00;8.65;80.06
40059;SHT31;25763;49.972;8.568;2023-03-25T04:09:50;8.61;79.87
40059;SHT31;25763;49.972;8.568;2023-03-25T04:12:28;8.60;79.71
40059;SHT31;25763;49.972;8.568;2023-03-25T04:14:58;8.64;80.03
40059;SHT31;25763;49.972;8.568;2023-03-25T04:17:24;8.65;79.80
40059;SHT31;25763;49.972;8.568;2023-03-25T04:19:49;8.65;79.68
40059;SHT31;25763;49.972;8.568;2023-03-25T04:22:18;8.63;79.53
40059;SHT31;25763;49.972;8.568;2023-03-25T04:24:44;8.70;79.46
40059;SHT31;25763;49.972;8.568;2023-03-25T04:27:09;8.70;79.41
40059;SHT31;25763;49.972;8.568;2023-03-25T04:29:38;8.67;79.31
40059;SHT31;25763;49.972;8.568;2023-03-25T04:32:05;8.70;79.41
40059;SHT31;25763;49.972;8.568;2023-03-25T04:34:30;8.71;79.40
40059;SHT31;25763;49.972;8.568;2023-03-25T04:36:55;8.68;78.96
40059;SHT31;25763;49.972;8.568;2023-03-25T04:39:21;8.67;78.95
40059;SHT31;25763;49.972;8.568;2023-03-25T04:41:50;8.71;79.24
40059;SHT31;25763;49.972;8.568;2023-03-25T04:44:18;8.71;78.81
40059;SHT31;25763;49.972;8.568;2023-03-25T04:46:46;8.77;79.08
40059;SHT31;25763;49.972;8.568;2023-03-25T04:49:21;8.74;78.92
40059;SHT31;25763;49.972;8.568;2023-03-25T04:51:49;8.74;78.89
40059;SHT31;25763;49.972;8.568;2023-03-25T04:54:16;8.75;78.93
40059;SHT31;25763;49.972;8.568;2023-03-25T04:56:42;8.74;78.92
40059;SHT31;25763;49.972;8.568;2023-03-25T04:59:07;8.77;78.78
40059;SHT31;25763;49.972;8.568;2023-03-25T05:01:36;8.73;78.84
40059;SHT31;25763;49.972;8.568;2023-03-25T05:04:08;8.70;78.86
40059;SHT31;25763;49.972;8.568;2023-03-25T05:06:41;8.71;78.70
40059;SHT31;25763;49.972;8.568;2023-03-25T05:09:08;8.71;78.75
40059;SHT31;25763;49.972;8.568;2023-03-25T05:11:35;8.70;78.87
40059;SHT31;25763;49.972;8.568;2023-03-25T05:14:04;8.73;78.73
40059;SHT31;25763;49.972;8.568;2023-03-25T05:16:29;8.68;78.88
40059;SHT31;25763;49.972;8.568;2023-03-25T05:18:54;8.67;78.74
40059;SHT31;25763;49.972;8.568;2023-03-25T05:21:20;8.68;78.78
40059;SHT31;25763;49.972;8.568;2023-03-25T05:23:46;8.68;78.72
40059;SHT31;25763;49.972;8.568;2023-03-25T05:26:12;8.68;79.29
40059;SHT31;25763;49.972;8.568;2023-03-25T05:28:38;8.67;79.28
40059;SHT31;25763;49.972;8.568;2023-03-25T05:31:04;8.64;79.13
40059;SHT31;25763;49.972;8.568;2023-03-25T05:33:37;8.65;79.28
40059;SHT31;25763;49.972;8.568;2023-03-25T05:36:11;8.68;79.50
40059;SHT31;25763;49.972;8.568;2023-03-25T05:38:38;8.64;78.95
40059;SHT31;25763;49.972;8.568;2023-03-25T05:41:07;8.64;78.92
40059;SHT31;25763;49.972;8.568;2023-03-25T05:43:36;8.65;79.02
40059;SHT31;25763;49.972;8.568;2023-03-25T05:46:01;8.68;79.02
40059;SHT31;25763;49.972;8.568;2023-03-25T05:48:29;8.70;79.25
40059;SHT31;25763;49.972;8.568;2023-03-25T05:50:57;8.70;79.56
40059;SHT31;25763;49.972;8.568;2023-03-25T05:53:22;8.65;79.61
40059;SHT31;25763;49.972;8.568;2023-03-25T05:55:48;8.71;79.78
40059;SHT31;25763;49.972;8.568;2023-03-25T05:58:16;8.63;80.20
40059;SHT31;25763;49.972;8.568;2023-03-25T06:00:42;8.61;80.64
40059;SHT31;25763;49.972;8.568;2023-03-25T06:03:08;8.61;81.08
40059;SHT31;25763;49.972;8.568;2023-03-25T06:05:34;8.61;81.23
40059;SHT31;25763;49.972;8.568;2023-03-25T06:07:59;8.65;81.38
40059;SHT31;25763;49.972;8.568;2023-03-25T06:10:26;8.60;81.28
40059;SHT31;25763;49.972;8.568;2023-03-25T06:12:51;8.59;81.34
40059;SHT31;25763;49.972;8.568;2023-03-25T06:15:18;8.54;81.34
40059;SHT31;25763;49.972;8.568;2023-03-25T06:17:45;8.50;81.10
40059;SHT31;25763;49.972;8.568;2023-03-25T06:20:12;8.57;81.31
40059;SHT31;25763;49.972;8.568;2023-03-25T06:22:39;8.56;81.48
40059;SHT31;25763;49.972;8.568;2023-03-25T06:25:05;8.52;81.93
40059;SHT31;25763;49.972;8.568;2023-03-25T06:27:31;8.53;82.30
40059;SHT31;25763;49.972;8.568;2023-03-25T06:30:02;8.59;82.59
40059;SHT31;25763;49.972;8.568;2023-03-25T06:32:28;8.67;82.58
40059;SHT31;25763;49.972;8.568;2023-03-25T06:34:53;8.81;82.41
40059;SHT31;25763;49.972;8.568;2023-03-25T06:37:18;8.88;81.89
40059;SHT31;25763;49.972;8.568;2023-03-25T06:39:44;8.91;81.72
40059;SHT31;25763;49.972;8.568;2023-03-25T06:42:10;8.83;81.58
40059;SHT31;25763;49.972;8.568;2023-03-25T06:44:36;8.89;81.30
40059;SHT31;25763;49.972;8.568;2023-03-25T06:47:01;9.01;80.94
40059;SHT31;25763;49.972;8.568;2023-03-25T06:49:29;9.16;80.81
40059;SHT31;25763;49.972;8.568;2023-03-25T06:51:55;9.36;79.84
40059;SHT31;25763;49.972;8.568;2023-03-25T06:54:20;9.68;79.57
40059;SHT31;25763;49.972;8.568;2023-03-25T06:56:46;9.95;78.46
40059;SHT31;25763;49.972;8.568;2023-03-25T06:59:12;10.10;77.96
40059;SHT31;25763;49.972;8.568;2023-03-25T07:01:37;10.16;77.09
40059;SHT31;25763;49.972;8.568;2023-03-25T07:04:03;10.21;77.05
40059;SHT31;25763;49.972;8.568;2023-03-25T07:06:28;10.12;76.78
40059;SHT31;25763;49.972;8.568;2023-03-25T07:08:55;10.06;76.86
40059;SHT31;25763;49.972;8.568;2023-03-25T07:11:25;10.09;76.11
40059;SHT31;25763;49.972;8.568;2023-03-25T07:13:51;10.21;75.99
40059;SHT31;25763;49.972;8.568;2023-03-25T07:16:18;10.27;74.92
40059;SHT31;25763;49.972;8.568;2023-03-25T07:18:44;10.55;74.81
40059;SHT31;25763;49.972;8.568;2023-03-25T07:21:10;10.59;73.82
40059;SHT31;25763;49.972;8.568;2023-03-25T07:23:36;10.89;73.06
40059;SHT31;25763;49.972;8.568;2023-03-25T07:26:01;10.99;73.02
40059;SHT31;25763;49.972;8.568;2023-03-25T07:28:27;10.92;73.06
40059;SHT31;25763;49.972;8.568;2023-03-25T07:30:52;10.89;73.37
40059;SHT31;25763;49.972;8.568;2023-03-25T07:33:17;10.67;73.87
40059;SHT31;25763;49.972;8.568;2023-03-25T07:35:42;10.62;73.95
40059;SHT31;25763;49.972;8.568;2023-03-25T07:38:08;10.57;74.16
40059;SHT31;25763;49.972;8.568;2023-03-25T07:40:34;10.59;74.21
40059;SHT31;25763;49.972;8.568;2023-03-25T07:42:59;10.73;73.95
40059;SHT31;25763;49.972;8.568;2023-03-25T07:45:25;10.68;73.67
40059;SHT31;25763;49.972;8.568;2023-03-25T07:47:51;10.73;73.09
40059;SHT31;25763;49.972;8.568;2023-03-25T07:50:18;10.75;73.56
40059;SHT31;25763;49.972;8.568;2023-03-25T07:52:43;10.90;72.66
40059;SHT31;25763;49.972;8.568;2023-03-25T07:55:09;10.92;72.59
40059;SHT31;25763;49.972;8.568;2023-03-25T07:57:34;10.75;72.57
40059;SHT31;25763;49.972;8.568;2023-03-25T08:00:00;10.73;72.85
40059;SHT31;25763;49.972;8.568;2023-03-25T08:02:25;10.77;72.75
40059;SHT31;25763;49.972;8.568;2023-03-25T08:04:50;10.79;73.12
40059;SHT31;25763;49.972;8.568;2023-03-25T08:07:19;10.89;72.16
40059;SHT31;25763;49.972;8.568;2023-03-25T08:09:45;10.94;72.06
40059;SHT31;25763;49.972;8.568;2023-03-25T08:12:10;11.04;71.73
40059;SHT31;25763;49.972;8.568;2023-03-25T08:14:36;10.93;71.63
40059;SHT31;25763;49.972;8.568;2023-03-25T08:17:04;10.97;71.84
40059;SHT31;25763;49.972;8.568;2023-03-25T08:19:29;11.17;71.51
40059;SHT31;25763;49.972;8.568;2023-03-25T08:21:54;11.76;70.37
40059;SHT31;25763;49.972;8.568;2023-03-25T08:24:20;11.94;69.09
40059;SHT31;25763;49.972;8.568;2023-03-25T08:26:45;12.09;68.24
40059;SHT31;25763;49.972;8.568;2023-03-25T08:29:10;11.99;68.47
40059;SHT31;25763;49.972;8.568;2023-03-25T08:31:36;12.01;68.31
40059;SHT31;25763;49.972;8.568;2023-03-25T08:34:03;11.95;67.61
40059;SHT31;25763;49.972;8.568;2023-03-25T08:36:29;11.87;67.19
40059;SHT31;25763;49.972;8.568;2023-03-25T08:38:55;12.05;67.39
40059;SHT31;25763;49.972;8.568;2023-03-25T08:41:21;11.86;67.49
40059;SHT31;25763;49.972;8.568;2023-03-25T08:43:46;11.81;68.21
40059;SHT31;25763;49.972;8.568;2023-03-25T08:46:12;11.62;67.69
40059;SHT31;25763;49.972;8.568;2023-03-25T08:48:38;11.58;67.73
40059;SHT31;25763;49.972;8.568;2023-03-25T08:51:04;11.61;67.63
40059;SHT31;25763;49.972;8.568;2023-03-25T08:53:30;11.77;67.60
40059;SHT31;25763;49.972;8.568;2023-03-25T08:55:57;11.66;66.35
40059;SHT31;25763;49.972;8.568;2023-03-25T08:58:24;11.69;66.58
40059;SHT31;25763;49.972;8.568;2023-03-25T09:00:52;11.71;67.05
40059;SHT31;25763;49.972;8.568;2023-03-25T09:03:19;11.63;66.69
40059;SHT31;25763;49.972;8.568;2023-03-25T09:05:46;11.61;67.27
40059;SHT31;25763;49.972;8.568;2023-03-25T09:08:11;11.46;69.94
40059;SHT31;25763;49.972;8.568;2023-03-25T09:10:37;11.06;72.73
40059;SHT31;25763;49.972;8.568;2023-03-25T09:13:02;10.90;73.61
40059;SHT31;25763;49.972;8.568;2023-03-25T09:15:27;11.03;73.57
40059;SHT31;25763;49.972;8.568;2023-03-25T09:17:53;11.18;73.70
40059;SHT31;25763;49.972;8.568;2023-03-25T09:20:18;11.21;72.01
40059;SHT31;25763;49.972;8.568;2023-03-25T09:22:44;11.35;71.67
40059;SHT31;25763;49.972;8.568;2023-03-25T09:25:10;11.34;71.44
40059;SHT31;25763;49.972;8.568;2023-03-25T09:27:35;11.29;70.16
40059;SHT31;25763;49.972;8.568;2023-03-25T09:30:05;11.41;70.12
40059;SHT31;25763;49.972;8.568;2023-03-25T09:32:31;11.58;70.58
40059;SHT31;25763;49.972;8.568;2023-03-25T09:34:56;11.62;70.49
40059;SHT31;25763;49.972;8.568;2023-03-25T09:37:22;11.71;71.14
40059;SHT31;25763;49.972;8.568;2023-03-25T09:39:47;11.49;71.25
40059;SHT31;25763;49.972;8.568;2023-03-25T09:47:56;11.32;74.42
40059;SHT31;25763;49.972;8.568;2023-03-25T09:50:23;11.28;74.40
40059;SHT31;25763;49.972;8.568;2023-03-25T09:52:56;11.28;75.94
40059;SHT31;25763;49.972;8.568;2023-03-25T09:55:31;10.99;76.95
40059;SHT31;25763;49.972;8.568;2023-03-25T09:58:17;11.11;76.87
40059;SHT31;25763;49.972;8.568;2023-03-25T10:00:45;10.37;73.51
40059;SHT31;25763;49.972;8.568;2023-03-25T10:05:47;8.99;76.37
40059;SHT31;25763;49.972;8.568;2023-03-25T10:08:37;8.60;80.06
40059;SHT31;25763;49.972;8.568;2023-03-25T10:11:14;8.52;81.43
40059;SHT31;25763;49.972;8.568;2023-03-25T10:22:05;8.60;79.14
40059;SHT31;25763;49.972;8.568;2023-03-25T10:24:45;8.65;78.65
40059;SHT31;25763;49.972;8.568;2023-03-25T10:27:39;8.88;79.58
40059;SHT31;25763;49.972;8.568;2023-03-25T10:30:37;9.15;78.12
40059;SHT31;25763;49.972;8.568;2023-03-25T10:33:25;9.58;78.01
40059;SHT31;25763;49.972;8.568;2023-03-25T10:35:54;9.95;78.04
40059;SHT31;25763;49.972;8.568;2023-03-25T10:38:22;9.82;77.02
40059;SHT31;25763;49.972;8.568;2023-03-25T10:40:50;10.02;77.32
40059;SHT31;25763;49.972;8.568;2023-03-25T10:43:26;10.41;75.91
40059;SHT31;25763;49.972;8.568;2023-03-25T10:45:55;10.61;74.22
40059;SHT31;25763;49.972;8.568;2023-03-25T10:48:27;10.58;73.95
40059;SHT31;25763;49.972;8.568;2023-03-25T10:50:57;10.82;72.84
40059;SHT31;25763;49.972;8.568;2023-03-25T10:53:24;10.85;72.46
40059;SHT31;25763;49.972;8.568;2023-03-25T10:56:16;10.73;71.78
40059;SHT31;25763;49.972;8.568;2023-03-25T10:58:42;10.93;71.40
40059;SHT31;25763;49.972;8.568;2023-03-25T11:01:11;11.14;70.14
40059;SHT31;25763;49.972;8.568;2023-03-25T11:03:39;11.48;70.38
40059;SHT31;25763;49.972;8.568;2023-03-25T11:06:06;11.98;69.63
40059;SHT31;25763;49.972;8.568;2023-03-25T11:08:31;12.22;66.55
40059;SHT31;25763;49.972;8.568;2023-03-25T11:10:57;12.38;65.80
40059;SHT31;25763;49.972;8.568;2023-03-25T11:13:29;12.43;64.19
40059;SHT31;25763;49.972;8.568;2023-03-25T11:15:57;12.81;63.47
40059;SHT31;25763;49.972;8.568;2023-03-25T11:18:57;12.73;62.04
40059;SHT31;25763;49.972;8.568;2023-03-25T11:21:16;13.30;61.54
40059;SHT31;25763;49.972;8.568;2023-03-25T11:23:47;13.54;61.82
40059;SHT31;25763;49.972;8.568;2023-03-25T11:26:17;13.54;59.82
40059;SHT31;25763;49.972;8.568;2023-03-25T11:28:54;13.27;59.08
40059;SHT31;25763;49.972;8.568;2023-03-25T11:31:25;13.53;59.22
40059;SHT31;25763;49.972;8.568;2023-03-25T11:36:41;13.43;57.59
40059;SHT31;25763;49.972;8.568;2023-03-25T11:41:48;13.19;58.84
40059;SHT31;25763;49.972;8.568;2023-03-25T11:44:28;13.20;58.57
40059;SHT31;25763;49.972;8.568;2023-03-25T11:47:04;13.32;58.42
40059;SHT31;25763;49.972;8.568;2023-03-25T11:49:33;13.06;58.66
40059;SHT31;25763;49.972;8.568;2023-03-25T11:52:08;13.33;58.93
40059;SHT31;25763;49.972;8.568;2023-03-25T11:54:38;13.53;57.99
40059;SHT31;25763;49.972;8.568;2023-03-25T11:57:10;13.26;58.76
40059;SHT31;25763;49.972;8.568;2023-03-25T11:59:42;13.19;58.85
40059;SHT31;25763;49.972;8.568;2023-03-25T12:02:23;13.08;57.19
40059;SHT31;25763;49.972;8.568;2023-03-25T12:07:27;12.88;57.48
40059;SHT31;25763;49.972;8.568;2023-03-25T12:09:58;13.12;57.26
40059;SHT31;25763;49.972;8.568;2023-03-25T12:12:39;13.64;54.99
40059;SHT31;25763;49.972;8.568;2023-03-25T12:15:18;14.00;53.61
40059;SHT31;25763;49.972;8.568;2023-03-25T12:18:15;14.00;52.11
40059;SHT31;25763;49.972;8.568;2023-03-25T12:20:52;14.21;51.05
40059;SHT31;25763;49.972;8.568;2023-03-25T12:23:52;14.20;49.42
40059;SHT31;25763;49.972;8.568;2023-03-25T12:26:34;14.50;50.12
40059;SHT31;25763;49.972;8.568;2023-03-25T12:35:21;13.92;51.37
40059;SHT31;25763;49.972;8.568;2023-03-25T12:40:58;14.40;52.13
40059;SHT31;25763;49.972;8.568;2023-03-25T12:46:22;15.06;52.64
40059;SHT31;25763;49.972;8.568;2023-03-25T12:48:53;14.85;52.69
40059;SHT31;25763;49.972;8.568;2023-03-25T12:56:52;14.05;56.20
40059;SHT31;25763;49.972;8.568;2023-03-25T13:02:13;12.94;63.35
40059;SHT31;25763;49.972;8.568;2023-03-25T13:04:56;12.18;70.11
40059;SHT31;25763;49.972;8.568;2023-03-25T13:07:31;11.73;70.71
40059;SHT31;25763;49.972;8.568;2023-03-25T13:10:13;11.91;70.11
40059;SHT31;25763;49.972;8.568;2023-03-25T13:12:53;12.24;70.45
40059;SHT31;25763;49.972;8.568;2023-03-25T13:15:41;12.75;69.10
40059;SHT31;25763;49.972;8.568;2023-03-25T13:18:14;13.01;66.05
40059;SHT31;25763;49.972;8.568;2023-03-25T13:20:44;13.08;64.48
40059;SHT31;25763;49.972;8.568;2023-03-25T13:23:17;13.18;62.53
40059;SHT31;25763;49.972;8.568;2023-03-25T13:26:16;13.46;62.87
40059;SHT31;25763;49.972;8.568;2023-03-25T13:28:48;13.70;62.25
40059;SHT31;25763;49.972;8.568;2023-03-25T13:31:20;13.99;61.34
40059;SHT31;25763;49.972;8.568;2023-03-25T13:33:52;14.14;60.68
40059;SHT31;25763;49.972;8.568;2023-03-25T13:36:28;14.21;59.74
40059;SHT31;25763;49.972;8.568;2023-03-25T13:38:56;14.16;58.50
40059;SHT31;25763;49.972;8.568;2023-03-25T13:41:40;14.23;55.44
40059;SHT31;25763;49.972;8.568;2023-03-25T13:44:19;14.06;55.27
40059;SHT31;25763;49.972;8.568;2023-03-25T13:46:50;14.51;55.03
40059;SHT31;25763;49.972;8.568;2023-03-25T13:49:22;14.69;54.05
40059;SHT31;25763;49.972;8.568;2023-03-25T13:51:50;14.27;53.85
40059;SHT31;25763;49.972;8.568;2023-03-25T14:06:09;13.92;53.53
40059;SHT31;25763;49.972;8.568;2023-03-25T14:11:43;14.09;53.28
40059;SHT31;25763;49.972;8.568;2023-03-25T14:14:17;13.79;52.54
40059;SHT31;25763;49.972;8.568;2023-03-25T14:16:48;13.82;52.47
40059;SHT31;25763;49.972;8.568;2023-03-25T14:19:31;13.79;51.27
40059;SHT31;25763;49.972;8.568;2023-03-25T14:21:57;13.85;51.70
40059;SHT31;25763;49.972;8.568;2023-03-25T14:24:34;13.89;51.84
40059;SHT31;25763;49.972;8.568;2023-03-25T14:27:03;13.91;51.57
40059;SHT31;25763;49.972;8.568;2023-03-25T14:29:52;13.78;52.26
40059;SHT31;25763;49.972;8.568;2023-03-25T14:34:46;13.98;51.09
40059;SHT31;25763;49.972;8.568;2023-03-25T14:37:31;14.42;50.23
40059;SHT31;25763;49.972;8.568;2023-03-25T14:40:00;14.82;50.74
40059;SHT31;25763;49.972;8.568;2023-03-25T14:42:38;14.76;50.99
40059;SHT31;25763;49.972;8.568;2023-03-25T14:47:56;14.83;47.43
40059;SHT31;25763;49.972;8.568;2023-03-25T14:52:50;15.07;47.64
40059;SHT31;25763;49.972;8.568;2023-03-25T14:57:46;15.03;48.03
40059;SHT31;25763;49.972;8.568;2023-03-25T15:00:24;15.12;48.18
40059;SHT31;25763;49.972;8.568;2023-03-25T15:05:26;14.85;47.43
40059;SHT31;25763;49.972;8.568;2023-03-25T15:08:10;14.97;48.26
40059;SHT31;25763;49.972;8.568;2023-03-25T15:11:02;14.92;48.14
40059;SHT31;25763;49.972;8.568;2023-03-25T15:13:32;14.85;48.76
40059;SHT31;25763;49.972;8.568;2023-03-25T15:16:04;14.75;48.65
40059;SHT31;25763;49.972;8.568;2023-03-25T15:23:57;14.75;48.76
40059;SHT31;25763;49.972;8.568;2023-03-25T15:26:28;14.57;48.55
40059;SHT31;25763;49.972;8.568;2023-03-25T15:29:06;14.61;48.53
40059;SHT31;25763;49.972;8.568;2023-03-25T15:37:27;14.28;47.33
40059;SHT31;25763;49.972;8.568;2023-03-25T15:40:34;14.27;48.39
40059;SHT31;25763;49.972;8.568;2023-03-25T15:48:32;14.38;47.37
40059;SHT31;25763;49.972;8.568;2023-03-25T15:54:24;14.44;46.80
40059;SHT31;25763;49.972;8.568;2023-03-25T15:56:55;14.24;46.70
40059;SHT31;25763;49.972;8.568;2023-03-25T16:01:54;14.20;47.77
40059;SHT31;25763;49.972;8.568;2023-03-25T16:04:41;14.26;47.13
40059;SHT31;25763;49.972;8.568;2023-03-25T16:07:12;14.37;47.51
40059;SHT31;25763;49.972;8.568;2023-03-25T16:09:48;14.37;47.59
40059;SHT31;25763;49.972;8.568;2023-03-25T16:12:20;14.30;47.94
40059;SHT31;25763;49.972;8.568;2023-03-25T16:14:47;14.17;48.28
40059;SHT31;25763;49.972;8.568;2023-03-25T16:17:14;13.99;49.49
40059;SHT31;25763;49.972;8.568;2023-03-25T16:24:42;13.92;50.69
40059;SHT31;25763;49.972;8.568;2023-03-25T16:27:10;13.79;51.12
40059;SHT31;25763;49.972;8.568;2023-03-25T16:29:37;13.77;51.27
40059;SHT31;25763;49.972;8.568;2023-03-25T16:32:04;13.70;51.38
40059;SHT31;25763;49.972;8.568;2023-03-25T16:34:39;13.64;51.77
40059;SHT31;25763;49.972;8.568;2023-03-25T16:37:05;13.62;51.70
40059;SHT31;25763;49.972;8.568;2023-03-25T16:39:34;13.54;51.24
40059;SHT31;25763;49.972;8.568;2023-03-25T16:42:06;13.53;51.67
40059;SHT31;25763;49.972;8.568;2023-03-25T16:44:37;13.43;52.09
40059;SHT31;25763;49.972;8.568;2023-03-25T16:47:03;13.32;52.27
40059;SHT31;25763;49.972;8.568;2023-03-25T16:49:31;13.23;52.52
40059;SHT31;25763;49.972;8.568;2023-03-25T16:52:01;13.14;52.83
40059;SHT31;25763;49.972;8.568;2023-03-25T16:56:55;13.04;52.99
40059;SHT31;25763;49.972;8.568;2023-03-25T16:59:28;12.94;53.41
40059;SHT31;25763;49.972;8.568;2023-03-25T17:01:56;12.91;53.42
40059;SHT31;25763;49.972;8.568;2023-03-25T17:07:04;12.80;54.24
40059;SHT31;25763;49.972;8.568;2023-03-25T17:09:34;12.75;54.32
40059;SHT31;25763;49.972;8.568;2023-03-25T17:12:08;12.73;54.28
40059;SHT31;25763;49.972;8.568;2023-03-25T17:14:38;12.71;54.19
40059;SHT31;25763;49.972;8.568;2023-03-25T17:17:17;12.67;54.60
40059;SHT31;25763;49.972;8.568;2023-03-25T17:19:48;12.60;54.87
40059;SHT31;25763;49.972;8.568;2023-03-25T17:22:27;12.56;55.33
40059;SHT31;25763;49.972;8.568;2023-03-25T17:25:12;12.49;55.00
40059;SHT31;25763;49.972;8.568;2023-03-25T17:27:39;12.43;55.69
40059;SHT31;25763;49.972;8.568;2023-03-25T17:30:20;12.45;55.24
40059;SHT31;25763;49.972;8.568;2023-03-25T17:32:47;12.40;55.29
40059;SHT31;25763;49.972;8.568;2023-03-25T17:35:22;12.39;55.11
40059;SHT31;25763;49.972;8.568;2023-03-25T17:37:52;12.38;55.01
40059;SHT31;25763;49.972;8.568;2023-03-25T17:40:23;12.43;54.94
40059;SHT31;25763;49.972;8.568;2023-03-25T17:42:51;12.45;55.30
40059;SHT31;25763;49.972;8.568;2023-03-25T17:45:17;12.43;56.31
40059;SHT31;25763;49.972;8.568;2023-03-25T17:47:44;12.38;56.95
40059;SHT31;25763;49.972;8.568;2023-03-25T17:50:19;12.39;57.80
40059;SHT31;25763;49.972;8.568;2023-03-25T17:52:44;12.25;60.50
40059;SHT31;25763;49.972;8.568;2023-03-25T17:55:10;12.04;61.81
40059;SHT31;25763;49.972;8.568;2023-03-25T17:57:36;11.90;62.99
40059;SHT31;25763;49.972;8.568;2023-03-25T18:00:03;11.76;63.35
40059;SHT31;25763;49.972;8.568;2023-03-25T18:02:32;11.63;64.31
40059;SHT31;25763;49.972;8.568;2023-03-25T18:04:58;11.51;65.00
40059;SHT31;25763;49.972;8.568;2023-03-25T18:07:23;11.39;65.68
40059;SHT31;25763;49.972;8.568;2023-03-25T18:09:48;11.31;66.03
40059;SHT31;25763;49.972;8.568;2023-03-25T18:12:14;11.21;66.61